createdAt,value
2018-12-22T00:00:26.476Z,11.70
2018-12-22T00:02:54.786Z,11.70
2018-12-22T00:05:23.052Z,11.80
2018-12-22T00:07:52.269Z,11.80
2018-12-22T00:10:20.604Z,11.80
2018-12-22T00:12:48.821Z,11.80
2018-12-22T00:15:17.089Z,11.80
2018-12-22T00:17:45.328Z,11.80
2018-12-22T00:20:13.599Z,11.80
2018-12-22T00:22:42.458Z,11.80
2018-12-22T00:25:10.996Z,11.90
2018-12-22T00:27:39.251Z,11.90
2018-12-22T00:30:08.104Z,11.90
2018-12-22T00:32:36.788Z,11.90
2018-12-22T00:35:05.511Z,11.90
2018-12-22T00:37:33.790Z,11.90
2018-12-22T00:40:02.044Z,11.90
2018-12-22T00:42:30.257Z,11.90
2018-12-22T00:44:58.465Z,11.90
2018-12-22T00:47:26.726Z,11.90
2018-12-22T00:49:54.972Z,11.90
2018-12-22T00:52:23.204Z,11.90
2018-12-22T00:54:51.412Z,11.90
2018-12-22T00:57:19.720Z,11.90
2018-12-22T00:59:47.945Z,11.90
2018-12-22T01:02:16.211Z,11.90
2018-12-22T01:04:44.494Z,11.90
2018-12-22T01:07:12.796Z,11.90
2018-12-22T01:09:41.051Z,11.90
2018-12-22T01:12:09.360Z,11.90
2018-12-22T01:14:37.548Z,11.90
2018-12-22T01:17:05.821Z,11.90
2018-12-22T01:19:34.126Z,11.90
2018-12-22T01:22:02.459Z,11.90
2018-12-22T01:24:31.097Z,11.80
2018-12-22T01:26:59.997Z,11.80
2018-12-22T01:29:28.994Z,11.80
2018-12-22T01:31:57.229Z,11.80
2018-12-22T01:34:25.602Z,11.80
2018-12-22T01:36:53.919Z,11.80
2018-12-22T01:39:22.195Z,11.70
2018-12-22T01:41:50.454Z,11.70
2018-12-22T01:44:18.805Z,11.70
2018-12-22T01:46:47.056Z,11.60
2018-12-22T01:49:15.364Z,11.60
2018-12-22T01:51:43.649Z,11.60
2018-12-22T01:54:12.446Z,11.60
2018-12-22T01:56:40.680Z,11.60
2018-12-22T01:59:08.880Z,11.60
2018-12-22T02:01:37.082Z,11.60
2018-12-22T02:04:05.378Z,11.60
2018-12-22T02:06:33.686Z,11.60
2018-12-22T02:09:01.970Z,11.60
2018-12-22T02:11:30.882Z,11.60
2018-12-22T02:13:59.231Z,11.60
2018-12-22T02:16:27.487Z,11.60
2018-12-22T02:18:55.902Z,11.60
2018-12-22T02:21:24.158Z,11.60
2018-12-22T02:23:52.379Z,11.60
2018-12-22T02:26:20.645Z,11.70
2018-12-22T02:28:56.588Z,11.70
2018-12-22T02:31:19.238Z,11.60
2018-12-22T02:33:47.573Z,11.60
2018-12-22T02:36:22.569Z,11.70
2018-12-22T02:38:50.843Z,11.70
2018-12-22T02:41:19.133Z,11.70
2018-12-22T02:43:47.426Z,11.70
2018-12-22T02:46:15.690Z,11.70
2018-12-22T02:48:43.927Z,11.70
2018-12-22T02:51:12.199Z,11.70
2018-12-22T02:53:40.467Z,11.70
2018-12-22T02:56:08.777Z,11.80
2018-12-22T02:58:37.106Z,11.80
2018-12-22T03:01:05.895Z,11.90
2018-12-22T03:03:34.178Z,11.90
2018-12-22T03:06:02.449Z,11.90
2018-12-22T03:08:30.686Z,12.00
2018-12-22T03:10:58.954Z,12.00
2018-12-22T03:13:27.737Z,12.00
2018-12-22T03:15:56.018Z,12.00
2018-12-22T03:18:24.261Z,12.00
2018-12-22T03:20:52.526Z,12.00
2018-12-22T03:23:20.801Z,12.00
2018-12-22T03:25:49.163Z,12.00
2018-12-22T03:28:17.405Z,12.00
2018-12-22T03:30:45.709Z,12.00
2018-12-22T03:33:13.995Z,12.00
2018-12-22T03:35:42.254Z,12.00
2018-12-22T03:38:10.490Z,12.00
2018-12-22T03:40:38.777Z,12.00
2018-12-22T03:43:07.025Z,11.90
2018-12-22T03:45:35.253Z,11.90
2018-12-22T03:48:04.396Z,11.90
2018-12-22T03:50:32.698Z,11.90
2018-12-22T03:53:00.994Z,11.90
2018-12-22T03:55:29.220Z,11.90
2018-12-22T03:57:57.569Z,11.80
2018-12-22T04:00:26.407Z,11.80
2018-12-22T04:02:54.620Z,11.80
2018-12-22T04:05:23.000Z,11.80
2018-12-22T04:07:51.962Z,11.80
2018-12-22T04:10:20.193Z,11.80
2018-12-22T04:12:48.572Z,11.80
2018-12-22T04:15:16.770Z,11.80
2018-12-22T04:17:45.173Z,11.70
2018-12-22T04:20:13.473Z,11.60
2018-12-22T04:22:42.100Z,11.60
2018-12-22T04:25:10.381Z,11.50
2018-12-22T04:27:38.681Z,11.40
2018-12-22T04:30:06.957Z,11.30
2018-12-22T04:32:35.848Z,11.30
2018-12-22T04:35:04.250Z,11.30
2018-12-22T04:37:32.497Z,11.30
2018-12-22T04:40:00.703Z,11.30
2018-12-22T04:42:28.995Z,11.20
2018-12-22T04:44:57.263Z,11.20
2018-12-22T04:47:25.531Z,11.20
2018-12-22T04:49:53.803Z,11.30
2018-12-22T04:52:22.057Z,11.30
2018-12-22T04:54:50.698Z,11.30
2018-12-22T04:57:19.022Z,11.30
2018-12-22T04:59:47.290Z,11.30
2018-12-22T05:02:15.555Z,11.30
2018-12-22T05:04:43.778Z,11.30
2018-12-22T05:07:12.045Z,11.30
2018-12-22T05:09:40.287Z,11.30
2018-12-22T05:12:09.145Z,11.30
2018-12-22T05:14:37.422Z,11.30
2018-12-22T05:17:05.696Z,11.30
2018-12-22T05:19:33.950Z,11.30
2018-12-22T05:22:02.229Z,11.40
2018-12-22T05:24:30.490Z,11.40
2018-12-22T05:26:58.781Z,11.30
2018-12-22T05:29:27.104Z,11.40
2018-12-22T05:31:55.376Z,11.40
2018-12-22T05:34:23.658Z,11.40
2018-12-22T05:36:51.872Z,11.40
2018-12-22T05:39:20.184Z,11.40
2018-12-22T05:41:48.960Z,11.40
2018-12-22T05:44:17.197Z,11.30
2018-12-22T05:46:45.404Z,11.30
2018-12-22T05:49:13.607Z,11.40
2018-12-22T05:51:41.889Z,11.40
2018-12-22T05:54:10.207Z,11.40
2018-12-22T05:56:38.873Z,11.40
2018-12-22T05:59:07.101Z,11.40
2018-12-22T06:01:35.353Z,11.40
2018-12-22T06:04:03.609Z,11.40
2018-12-22T06:06:32.105Z,11.50
2018-12-22T06:09:01.050Z,11.50
2018-12-22T06:11:29.349Z,11.50
2018-12-22T06:13:57.648Z,11.60
2018-12-22T06:16:26.861Z,11.60
2018-12-22T06:18:56.142Z,11.60
2018-12-22T06:21:24.398Z,11.60
2018-12-22T06:23:54.166Z,11.60
2018-12-22T06:26:22.445Z,11.60
2018-12-22T06:28:52.167Z,11.60
2018-12-22T06:31:20.441Z,11.60
2018-12-22T06:33:49.197Z,11.70
2018-12-22T06:36:17.390Z,11.60
2018-12-22T06:38:45.629Z,11.60
2018-12-22T06:41:13.922Z,11.60
2018-12-22T06:43:42.166Z,11.60
2018-12-22T06:46:11.392Z,11.60
2018-12-22T06:48:39.642Z,11.60
2018-12-22T06:51:09.088Z,11.60
2018-12-22T06:53:37.326Z,11.60
2018-12-22T06:56:05.889Z,11.60
2018-12-22T06:58:34.773Z,11.60
2018-12-22T07:01:03.017Z,11.70
2018-12-22T07:03:31.389Z,11.70
2018-12-22T07:06:00.632Z,11.70
2018-12-22T07:08:28.925Z,11.80
2018-12-22T07:10:57.235Z,11.80
2018-12-22T07:13:25.495Z,11.80
2018-12-22T07:15:53.771Z,11.80
2018-12-22T07:18:22.427Z,11.80
2018-12-22T07:20:51.580Z,11.80
2018-12-22T07:23:19.845Z,11.80
2018-12-22T07:25:48.109Z,11.90
2018-12-22T07:28:16.407Z,11.90
2018-12-22T07:30:44.599Z,11.90
2018-12-22T07:33:12.949Z,11.90
2018-12-22T07:35:41.229Z,11.90
2018-12-22T07:38:09.408Z,11.90
2018-12-22T07:40:37.827Z,11.90
2018-12-22T07:43:06.105Z,12.00
2018-12-22T07:45:34.380Z,12.00
2018-12-22T07:48:02.751Z,12.00
2018-12-22T07:50:31.094Z,12.00
2018-12-22T07:53:00.273Z,12.00
2018-12-22T07:55:32.645Z,12.00
2018-12-22T07:58:00.914Z,12.00
2018-12-22T08:00:34.800Z,12.00
2018-12-22T08:02:57.417Z,12.00
2018-12-22T08:05:25.689Z,12.00
2018-12-22T08:07:54.021Z,12.00
2018-12-22T08:10:22.326Z,12.00
2018-12-22T08:12:50.530Z,12.00
2018-12-22T08:15:19.000Z,12.00
2018-12-22T08:17:47.261Z,12.00
2018-12-22T08:20:15.460Z,12.00
2018-12-22T08:22:43.695Z,12.00
2018-12-22T08:25:11.955Z,12.00
2018-12-22T08:27:40.165Z,12.00
2018-12-22T08:30:09.161Z,12.00
2018-12-22T08:32:37.897Z,12.00
2018-12-22T08:35:07.346Z,12.00
2018-12-22T08:37:35.649Z,12.10
2018-12-22T08:40:03.653Z,12.00
2018-12-22T08:42:31.863Z,12.00
2018-12-22T08:45:00.173Z,12.00
2018-12-22T08:47:28.199Z,12.00
2018-12-22T08:49:56.426Z,12.10
2018-12-22T08:52:24.623Z,12.10
2018-12-22T08:54:52.802Z,12.10
2018-12-22T08:57:20.960Z,12.10
2018-12-22T08:59:49.673Z,12.00
2018-12-22T09:02:17.890Z,12.10
2018-12-22T09:04:46.075Z,12.10
2018-12-22T09:07:14.266Z,12.10
2018-12-22T09:09:42.538Z,12.10
2018-12-22T09:12:10.772Z,12.10
2018-12-22T09:14:38.984Z,12.10
2018-12-22T09:17:07.190Z,12.20
2018-12-22T09:19:35.354Z,12.20
2018-12-22T09:22:04.034Z,12.20
2018-12-22T09:24:33.079Z,12.30
2018-12-22T09:27:02.710Z,12.30
2018-12-22T09:29:31.496Z,12.30
2018-12-22T09:31:59.766Z,12.30
2018-12-22T09:34:28.002Z,12.30
2018-12-22T09:36:56.289Z,12.20
2018-12-22T09:39:24.469Z,12.20
2018-12-22T09:41:52.755Z,12.20
2018-12-22T09:44:20.944Z,12.20
2018-12-22T09:46:49.142Z,12.10
2018-12-22T09:49:17.479Z,12.10
2018-12-22T09:51:45.703Z,12.10
2018-12-22T09:54:14.215Z,12.20
2018-12-22T09:56:42.431Z,12.20
2018-12-22T09:59:10.670Z,12.30
2018-12-22T10:01:38.939Z,12.30
2018-12-22T10:04:07.732Z,12.30
2018-12-22T10:06:35.985Z,12.40
2018-12-22T10:09:05.985Z,12.30
2018-12-22T10:11:34.261Z,12.40
2018-12-22T10:14:02.670Z,12.30
2018-12-22T10:16:30.938Z,12.40
2018-12-22T10:18:59.185Z,12.30
2018-12-22T10:21:27.423Z,12.30
2018-12-22T10:23:56.762Z,12.30
2018-12-22T10:26:25.052Z,12.30
2018-12-22T10:28:53.396Z,12.40
2018-12-22T10:31:21.653Z,12.50
2018-12-22T10:33:50.981Z,12.60
2018-12-22T10:36:19.238Z,12.60
2018-12-22T10:38:47.457Z,12.70
2018-12-22T10:41:15.745Z,12.60
2018-12-22T10:43:44.033Z,12.60
2018-12-22T10:46:12.253Z,12.50
2018-12-22T10:48:40.527Z,12.50
2018-12-22T10:51:08.786Z,12.50
2018-12-22T10:53:37.118Z,12.50
2018-12-22T10:56:05.360Z,12.50
2018-12-22T10:58:34.137Z,12.50
2018-12-22T11:01:03.034Z,12.50
2018-12-22T11:03:32.178Z,12.40
2018-12-22T11:06:00.349Z,12.40
2018-12-22T11:08:29.331Z,12.40
2018-12-22T11:10:57.560Z,12.40
2018-12-22T11:13:25.806Z,12.40
2018-12-22T11:15:54.058Z,12.50
2018-12-22T11:18:22.282Z,12.50
2018-12-22T11:20:51.233Z,12.40
2018-12-22T11:23:20.615Z,12.40
2018-12-22T11:25:47.761Z,12.40
2018-12-22T11:28:16.009Z,12.40
2018-12-22T11:30:44.686Z,12.40
2018-12-22T11:33:12.929Z,12.50
2018-12-22T11:35:41.167Z,12.50
2018-12-22T11:38:09.825Z,12.60
2018-12-22T11:40:38.066Z,12.60
2018-12-22T11:43:06.293Z,12.50
2018-12-22T11:45:34.535Z,12.40
2018-12-22T11:48:16.560Z,12.40
2018-12-22T11:50:44.820Z,12.30
2018-12-22T11:53:13.698Z,12.30
2018-12-22T11:55:42.103Z,12.30
2018-12-22T11:58:10.405Z,12.30
2018-12-22T12:00:40.134Z,12.30
2018-12-22T12:03:08.353Z,12.40
2018-12-22T12:05:36.610Z,12.40
2018-12-22T12:08:04.884Z,12.40
2018-12-22T12:10:33.183Z,12.40
2018-12-22T12:13:02.841Z,12.40
2018-12-22T12:15:38.154Z,12.40
2018-12-22T12:18:21.131Z,12.40
2018-12-22T12:20:49.347Z,12.30
2018-12-22T12:23:17.613Z,12.30
2018-12-22T12:25:45.875Z,12.30
2018-12-22T12:28:14.845Z,12.30
2018-12-22T12:30:43.130Z,12.30
2018-12-22T12:33:11.473Z,12.20
2018-12-22T12:35:40.187Z,12.20
2018-12-22T12:38:08.510Z,12.10
2018-12-22T12:40:36.765Z,12.10
2018-12-22T12:43:05.082Z,12.10
2018-12-22T12:45:33.380Z,12.20
2018-12-22T12:48:01.669Z,12.30
2018-12-22T12:50:29.930Z,12.40
2018-12-22T12:52:58.640Z,12.50
2018-12-22T12:55:26.923Z,12.50
2018-12-22T12:57:55.536Z,12.50
2018-12-22T13:00:24.148Z,12.50
2018-12-22T13:02:52.428Z,12.50
2018-12-22T13:05:20.657Z,12.50
2018-12-22T13:07:48.987Z,12.50
2018-12-22T13:10:17.207Z,12.60
2018-12-22T13:12:58.496Z,12.70
2018-12-22T13:15:27.329Z,12.70
2018-12-22T13:17:56.586Z,12.80
2018-12-22T13:20:25.635Z,13.00
2018-12-22T13:22:53.890Z,13.10
2018-12-22T13:25:22.118Z,13.10
2018-12-22T13:27:50.377Z,13.20
2018-12-22T13:30:18.646Z,13.20
2018-12-22T13:32:46.851Z,13.30
2018-12-22T13:35:15.097Z,13.40
2018-12-22T13:37:43.344Z,13.50
2018-12-22T13:40:11.577Z,13.60
2018-12-22T13:42:39.903Z,13.70
2018-12-22T13:45:08.503Z,13.80
2018-12-22T13:47:37.701Z,13.80
2018-12-22T13:50:06.300Z,13.70
2018-12-22T13:52:34.571Z,13.60
2018-12-22T13:55:02.697Z,13.40
2018-12-22T13:57:30.949Z,13.20
2018-12-22T13:59:59.738Z,12.90
2018-12-22T14:02:28.255Z,12.70
2018-12-22T14:04:56.946Z,12.60
2018-12-22T14:07:25.906Z,12.60
2018-12-22T14:09:54.194Z,12.50
2018-12-22T14:12:22.479Z,12.40
2018-12-22T14:14:50.701Z,12.40
2018-12-22T14:17:22.627Z,12.20
2018-12-22T14:19:57.501Z,12.20
2018-12-22T14:22:25.993Z,12.10
2018-12-22T14:24:55.946Z,12.10
2018-12-22T14:27:24.240Z,12.00
2018-12-22T14:29:52.591Z,11.90
2018-12-22T14:32:26.827Z,11.90
2018-12-22T14:34:56.304Z,11.80
2018-12-22T14:37:24.646Z,11.70
2018-12-22T14:39:52.898Z,11.60
2018-12-22T14:42:21.119Z,11.60
2018-12-22T14:44:49.413Z,11.50
2018-12-22T14:47:18.689Z,11.50
2018-12-22T14:49:47.001Z,11.50
2018-12-22T14:52:15.281Z,11.40
2018-12-22T14:54:43.554Z,11.50
2018-12-22T14:57:12.032Z,11.50
2018-12-22T14:59:40.095Z,11.40
2018-12-22T15:02:09.828Z,11.30
2018-12-22T15:04:38.229Z,11.30
2018-12-22T15:07:07.333Z,11.20
2018-12-22T15:09:36.593Z,11.10
2018-12-22T15:12:05.439Z,11.10
2018-12-22T15:14:33.693Z,11.10
2018-12-22T15:17:01.967Z,11.10
2018-12-22T15:19:30.630Z,11.00
2018-12-22T15:22:00.206Z,10.90
2018-12-22T15:24:28.441Z,10.90
2018-12-22T15:26:56.693Z,10.90
2018-12-22T15:29:24.990Z,10.90
2018-12-22T15:31:53.309Z,10.80
2018-12-22T15:34:21.609Z,10.80
2018-12-22T15:36:49.855Z,10.70
2018-12-22T15:39:18.161Z,10.70
2018-12-22T15:41:46.353Z,10.60
2018-12-22T15:44:14.619Z,10.60
2018-12-22T15:46:42.873Z,10.60
2018-12-22T15:49:12.179Z,10.50
2018-12-22T15:51:40.521Z,10.50
2018-12-22T15:54:09.445Z,10.50
2018-12-22T15:56:37.707Z,10.40
2018-12-22T15:59:05.934Z,10.40
2018-12-22T16:01:34.218Z,10.40
2018-12-22T16:04:02.444Z,10.30
2018-12-22T16:06:30.741Z,10.30
2018-12-22T16:08:59.961Z,10.30
2018-12-22T16:11:28.270Z,10.30
2018-12-22T16:13:56.515Z,10.30
2018-12-22T16:16:24.849Z,10.30
2018-12-22T16:18:53.181Z,10.30
2018-12-22T16:21:22.410Z,10.30
2018-12-22T16:23:50.694Z,10.30
2018-12-22T16:26:19.078Z,10.30
2018-12-22T16:28:53.201Z,10.20
2018-12-22T16:31:21.426Z,10.30
2018-12-22T16:33:49.706Z,10.20
2018-12-22T16:36:18.021Z,10.20
2018-12-22T16:38:46.317Z,10.20
2018-12-22T16:41:14.557Z,10.20
2018-12-22T16:43:43.436Z,10.10
2018-12-22T16:46:11.688Z,10.10
2018-12-22T16:48:42.781Z,10.10
2018-12-22T16:51:11.030Z,10.00
2018-12-22T16:53:39.335Z,10.00
2018-12-22T16:56:08.555Z,10.00
2018-12-22T16:58:39.186Z,10.00
2018-12-22T17:01:15.568Z,10.00
2018-12-22T17:03:43.938Z,9.90
2018-12-22T17:06:13.085Z,9.90
2018-12-22T17:08:41.377Z,9.90
2018-12-22T17:11:09.664Z,9.90
2018-12-22T17:13:37.990Z,9.90
2018-12-22T17:16:06.562Z,9.90
2018-12-22T17:18:34.773Z,9.90
2018-12-22T17:21:26.534Z,10.00
2018-12-22T17:24:05.509Z,9.90
2018-12-22T17:26:36.105Z,9.90
2018-12-22T17:29:04.361Z,9.90
2018-12-22T17:31:32.648Z,9.90
2018-12-22T17:34:00.907Z,9.90
2018-12-22T17:36:29.104Z,9.90
2018-12-22T17:38:57.348Z,9.90
2018-12-22T17:41:25.600Z,9.90
2018-12-22T17:43:53.852Z,10.00
2018-12-22T17:46:22.100Z,10.10
2018-12-22T17:48:50.419Z,10.10
2018-12-22T17:51:18.640Z,10.10
2018-12-22T17:53:47.203Z,10.10
2018-12-22T17:56:15.444Z,10.10
2018-12-22T17:58:43.685Z,10.10
2018-12-22T18:01:11.979Z,10.20
2018-12-22T18:03:40.198Z,10.20
2018-12-22T18:06:08.471Z,10.20
2018-12-22T18:08:36.745Z,10.20
2018-12-22T18:11:05.594Z,10.20
2018-12-22T18:13:34.528Z,10.20
2018-12-22T18:16:03.130Z,10.20
2018-12-22T18:18:31.329Z,10.10
2018-12-22T18:21:00.106Z,10.10
2018-12-22T18:23:28.435Z,10.20
2018-12-22T18:25:56.721Z,10.10
2018-12-22T18:28:25.022Z,10.10
2018-12-22T18:30:53.261Z,10.10
2018-12-22T18:33:21.506Z,10.00
2018-12-22T18:35:49.746Z,10.00
2018-12-22T18:38:18.099Z,10.00
2018-12-22T18:40:46.340Z,10.00
2018-12-22T18:43:15.180Z,10.00
2018-12-22T18:45:43.436Z,10.00
2018-12-22T18:48:11.756Z,10.00
2018-12-22T18:50:40.014Z,10.00
2018-12-22T18:53:08.417Z,10.00
2018-12-22T18:55:36.658Z,9.90
2018-12-22T18:58:07.181Z,9.90
2018-12-22T19:00:35.406Z,9.90
2018-12-22T19:03:03.604Z,9.80
2018-12-22T19:05:31.838Z,9.80
2018-12-22T19:08:05.024Z,9.80
2018-12-22T19:10:39.088Z,9.80
2018-12-22T19:13:07.427Z,9.80
2018-12-22T19:15:35.743Z,9.80
2018-12-22T19:18:04.034Z,9.80
2018-12-22T19:20:48.189Z,9.80
2018-12-22T19:23:17.058Z,9.80
2018-12-22T19:25:46.236Z,9.80
2018-12-22T19:28:14.591Z,9.70
2018-12-22T19:30:44.443Z,9.80
2018-12-22T19:33:11.118Z,9.80
2018-12-22T19:35:39.410Z,9.80
2018-12-22T19:38:07.573Z,9.90
2018-12-22T19:40:35.744Z,9.90
2018-12-22T19:43:03.959Z,10.00
2018-12-22T19:45:32.223Z,10.00
2018-12-22T19:48:01.360Z,10.00
2018-12-22T19:50:29.536Z,10.10
2018-12-22T19:52:58.052Z,10.10
2018-12-22T19:55:26.230Z,10.10
2018-12-22T19:57:55.503Z,10.10
2018-12-22T20:00:25.214Z,10.10
2018-12-22T20:02:53.929Z,10.10
2018-12-22T20:05:22.209Z,10.10
2018-12-22T20:07:50.437Z,10.10
2018-12-22T20:10:18.719Z,10.20
2018-12-22T20:12:46.936Z,10.10
2018-12-22T20:15:15.205Z,10.10
2018-12-22T20:17:43.431Z,10.10
2018-12-22T20:20:11.676Z,10.10
2018-12-22T20:22:39.887Z,10.00
2018-12-22T20:25:08.153Z,10.00
2018-12-22T20:27:36.409Z,10.10
2018-12-22T20:30:05.393Z,10.10
2018-12-22T20:32:34.017Z,10.10
2018-12-22T20:35:02.261Z,10.10
2018-12-22T20:37:30.522Z,10.00
2018-12-22T20:39:58.842Z,10.00
2018-12-22T20:42:27.113Z,9.90
2018-12-22T20:44:55.351Z,9.90
2018-12-22T20:47:23.611Z,9.90
2018-12-22T20:49:51.891Z,9.90
2018-12-22T20:52:20.449Z,9.90
2018-12-22T20:54:48.641Z,9.90
2018-12-22T20:57:16.943Z,10.00
2018-12-22T20:59:45.141Z,10.00
2018-12-22T21:02:13.429Z,10.00
2018-12-22T21:04:41.656Z,10.00
2018-12-22T21:07:09.985Z,10.00
2018-12-22T21:09:38.232Z,10.00
2018-12-22T21:12:06.477Z,10.00
2018-12-22T21:14:34.717Z,9.90
2018-12-22T21:17:04.008Z,9.90
2018-12-22T21:19:32.867Z,9.90
2018-12-22T21:22:01.133Z,9.90
2018-12-22T21:24:29.361Z,9.80
2018-12-22T21:26:57.593Z,9.80
2018-12-22T21:29:25.886Z,9.80
2018-12-22T21:31:54.132Z,9.70
2018-12-22T21:34:28.260Z,9.60
2018-12-22T21:36:51.209Z,9.50
2018-12-22T21:39:19.431Z,9.60
2018-12-22T21:41:47.736Z,9.50
2018-12-22T21:44:16.083Z,9.60
2018-12-22T21:46:44.402Z,9.60
2018-12-22T21:49:13.381Z,9.70
2018-12-22T21:51:41.670Z,9.70
2018-12-22T21:54:09.897Z,9.70
2018-12-22T21:56:38.151Z,9.70
2018-12-22T21:59:06.398Z,9.80
2018-12-22T22:01:34.713Z,9.80
2018-12-22T22:04:02.969Z,9.80
2018-12-22T22:06:31.238Z,9.80
2018-12-22T22:08:59.639Z,9.80
2018-12-22T22:11:28.806Z,9.80
2018-12-22T22:13:57.639Z,9.80
2018-12-22T22:16:25.852Z,9.80
2018-12-22T22:18:54.142Z,9.80
2018-12-22T22:21:22.462Z,9.80
2018-12-22T22:23:50.773Z,9.80
2018-12-22T22:26:19.043Z,9.80
2018-12-22T22:28:47.257Z,9.90
2018-12-22T22:31:15.515Z,9.80
2018-12-22T22:33:43.738Z,9.90
2018-12-22T22:36:11.973Z,9.90
2018-12-22T22:38:40.189Z,9.90
2018-12-22T22:41:08.417Z,9.90
2018-12-22T22:43:37.683Z,9.90
2018-12-22T22:46:06.005Z,9.90
2018-12-22T22:48:34.245Z,9.90
2018-12-22T22:51:03.211Z,9.90
2018-12-22T22:53:31.449Z,9.90
2018-12-22T22:55:59.653Z,9.90
2018-12-22T22:58:27.869Z,9.90
2018-12-22T23:00:56.130Z,9.90
2018-12-22T23:03:24.483Z,9.90
2018-12-22T23:05:52.577Z,9.90
2018-12-22T23:08:20.832Z,9.90
2018-12-22T23:10:49.045Z,9.90
2018-12-22T23:13:17.283Z,9.90
2018-12-22T23:15:46.124Z,9.90
2018-12-22T23:18:14.381Z,9.90
2018-12-22T23:20:42.622Z,9.90
2018-12-22T23:23:10.922Z,9.80
2018-12-22T23:25:39.164Z,9.90
2018-12-22T23:28:07.377Z,9.80
2018-12-22T23:30:35.623Z,9.80
2018-12-22T23:33:03.845Z,9.80
2018-12-22T23:35:32.099Z,9.80
2018-12-22T23:38:00.405Z,9.80
2018-12-22T23:40:28.630Z,9.80
2018-12-22T23:42:56.854Z,9.80
2018-12-22T23:45:25.182Z,9.70
2018-12-22T23:47:53.438Z,9.70
2018-12-22T23:50:21.709Z,9.70
2018-12-22T23:52:50.631Z,9.70
2018-12-22T23:55:18.873Z,9.70
2018-12-22T23:57:47.157Z,9.70
